createdAt,value
2022-11-14T00:00:25.049Z,23.40
2022-11-14T00:03:28.203Z,22.43
2022-11-14T00:06:31.269Z,25.63
2022-11-14T00:09:37.685Z,20.40
2022-11-14T00:12:40.772Z,21.20
2022-11-14T00:15:44.145Z,26.77
2022-11-14T00:18:47.249Z,21.00
2022-11-14T00:21:52.492Z,20.17
2022-11-14T00:24:56.969Z,20.10
2022-11-14T00:28:00.564Z,19.53
2022-11-14T00:31:03.663Z,19.57
2022-11-14T00:34:06.945Z,18.47
2022-11-14T00:37:10.139Z,20.33
2022-11-14T00:40:15.696Z,17.10
2022-11-14T00:43:19.088Z,20.90
2022-11-14T00:46:22.214Z,15.73
2022-11-14T00:49:25.308Z,16.40
2022-11-14T00:52:28.413Z,16.83
2022-11-14T00:55:32.946Z,16.73
2022-11-14T00:58:36.006Z,17.90
2022-11-14T01:01:39.127Z,17.27
2022-11-14T01:04:42.240Z,17.63
2022-11-14T01:07:45.336Z,16.23
2022-11-14T01:10:51.792Z,16.63
2022-11-14T01:13:54.879Z,17.77
2022-11-14T01:16:58.070Z,17.07
2022-11-14T01:20:01.172Z,17.00
2022-11-14T01:23:04.283Z,36.17
2022-11-14T01:26:10.818Z,23.23
2022-11-14T01:29:13.927Z,28.07
2022-11-14T01:32:17.312Z,37.73
2022-11-14T01:35:20.394Z,22.60
2022-11-14T01:38:23.493Z,24.00
2022-11-14T01:41:28.021Z,21.10
2022-11-14T01:44:47.067Z,22.20
2022-11-14T01:47:50.510Z,23.27
2022-11-14T01:50:58.243Z,19.87
2022-11-14T01:54:04.768Z,22.73
2022-11-14T01:57:10.850Z,19.37
2022-11-14T02:00:15.137Z,18.30
2022-11-14T02:03:18.979Z,20.40
2022-11-14T02:06:24.969Z,19.53
2022-11-14T02:09:32.120Z,18.53
2022-11-14T02:12:37.020Z,20.80
2022-11-14T02:15:40.450Z,21.10
2022-11-14T02:18:43.545Z,20.20
2022-11-14T02:21:48.009Z,18.03
2022-11-14T02:24:51.094Z,17.97
2022-11-14T02:27:54.619Z,16.93
2022-11-14T02:30:57.845Z,18.83
2022-11-14T02:34:00.964Z,20.67
2022-11-14T02:37:05.635Z,19.03
2022-11-14T02:40:10.351Z,17.10
2022-11-14T02:43:13.513Z,15.83
2022-11-14T02:46:16.584Z,16.07
2022-11-14T02:49:19.661Z,16.80
2022-11-14T02:52:24.118Z,17.80
2022-11-14T02:55:27.231Z,19.87
2022-11-14T02:58:30.553Z,17.60
2022-11-14T03:01:33.904Z,18.27
2022-11-14T03:04:36.988Z,20.37
2022-11-14T03:07:41.523Z,18.40
2022-11-14T03:10:44.650Z,18.93
2022-11-14T03:13:47.725Z,19.17
2022-11-14T03:16:50.834Z,17.73
2022-11-14T03:19:53.919Z,19.17
2022-11-14T03:22:58.366Z,21.40
2022-11-14T03:26:02.134Z,19.30
2022-11-14T03:29:05.341Z,15.70
2022-11-14T03:32:08.437Z,22.17
2022-11-14T03:35:12.183Z,18.83
2022-11-14T03:38:16.639Z,16.53
2022-11-14T03:41:19.733Z,17.40
2022-11-14T03:44:23.063Z,17.10
2022-11-14T03:47:26.158Z,17.20
2022-11-14T03:50:29.271Z,16.33
2022-11-14T03:53:33.733Z,15.70
2022-11-14T03:56:36.951Z,15.60
2022-11-14T03:59:40.092Z,16.07
2022-11-14T04:02:43.212Z,16.80
2022-11-14T04:05:46.794Z,16.70
2022-11-14T04:08:51.929Z,17.10
2022-11-14T04:11:55.116Z,15.77
2022-11-14T04:14:58.554Z,15.60
2022-11-14T04:18:01.827Z,19.40
2022-11-14T04:21:05.326Z,15.60
2022-11-14T04:24:11.324Z,23.23
2022-11-14T04:27:14.572Z,26.93
2022-11-14T04:30:17.999Z,22.50
2022-11-14T04:33:21.093Z,20.20
2022-11-14T04:36:24.191Z,17.03
2022-11-14T04:39:28.652Z,19.07
2022-11-14T04:42:31.739Z,20.20
2022-11-14T04:45:34.894Z,19.30
2022-11-14T04:48:38.076Z,18.67
2022-11-14T04:51:41.198Z,18.50
2022-11-14T04:54:45.651Z,19.90
2022-11-14T04:57:48.796Z,16.10
2022-11-14T05:00:52.759Z,18.70
2022-11-14T05:03:56.628Z,17.63
2022-11-14T05:06:59.846Z,17.93
2022-11-14T05:10:05.276Z,20.00
2022-11-14T05:13:08.385Z,17.83
2022-11-14T05:16:11.942Z,16.80
2022-11-14T05:19:15.137Z,20.10
2022-11-14T05:22:18.777Z,18.03
2022-11-14T05:25:23.318Z,18.97
2022-11-14T05:28:26.559Z,18.00
2022-11-14T05:31:29.828Z,22.43
2022-11-14T05:34:32.931Z,17.23
2022-11-14T05:37:36.410Z,16.93
2022-11-14T05:40:40.872Z,17.77
2022-11-14T05:43:45.031Z,20.93
2022-11-14T05:46:48.119Z,42.53
2022-11-14T05:49:51.199Z,21.00
2022-11-14T05:52:54.285Z,17.03
2022-11-14T05:56:01.884Z,16.73
2022-11-14T05:59:05.179Z,17.67
2022-11-14T06:02:08.344Z,23.73
2022-11-14T06:05:11.860Z,17.27
2022-11-14T06:08:14.951Z,20.40
2022-11-14T06:11:21.315Z,18.13
2022-11-14T06:14:24.453Z,17.63
2022-11-14T06:17:27.589Z,18.50
2022-11-14T06:20:30.693Z,18.10
2022-11-14T06:23:34.104Z,19.50
2022-11-14T06:26:38.620Z,21.37
2022-11-14T06:29:41.736Z,18.07
2022-11-14T06:32:44.822Z,19.80
2022-11-14T06:35:47.950Z,18.50
2022-11-14T06:38:51.043Z,21.60
2022-11-14T06:41:55.508Z,21.60
2022-11-14T06:44:58.647Z,24.40
2022-11-14T06:48:01.738Z,22.90
2022-11-14T06:51:06.186Z,25.63
2022-11-14T06:54:12.158Z,21.87
2022-11-14T06:57:16.657Z,22.53
2022-11-14T07:00:20.337Z,19.03
2022-11-14T07:03:24.117Z,23.63
2022-11-14T07:06:28.691Z,23.03
2022-11-14T07:09:31.783Z,28.50
2022-11-14T07:12:36.272Z,25.40
2022-11-14T07:15:39.483Z,30.13
2022-11-14T07:18:42.610Z,25.00
2022-11-14T07:21:45.784Z,22.70
2022-11-14T07:24:48.932Z,31.37
2022-11-14T07:27:53.420Z,33.20
2022-11-14T07:30:56.578Z,27.43
2022-11-14T07:33:59.706Z,32.57
2022-11-14T07:37:02.820Z,31.33
2022-11-14T07:40:06.778Z,35.77
2022-11-14T07:43:11.255Z,32.23
2022-11-14T07:46:15.911Z,30.20
2022-11-14T07:49:19.185Z,32.93
2022-11-14T07:52:22.315Z,30.80
2022-11-14T07:55:26.068Z,32.20
2022-11-14T07:58:30.826Z,31.37
2022-11-14T08:01:34.207Z,29.73
2022-11-14T08:04:37.428Z,29.67
2022-11-14T08:07:40.577Z,27.57
2022-11-14T08:10:43.753Z,28.27
2022-11-14T08:13:48.263Z,30.13
2022-11-14T08:16:51.853Z,28.10
2022-11-14T08:19:54.958Z,27.43
2022-11-14T08:23:03.761Z,26.27
2022-11-14T08:26:07.203Z,28.40
2022-11-14T08:29:11.678Z,27.83
2022-11-14T08:32:15.595Z,24.47
2022-11-14T08:35:18.862Z,25.57
2022-11-14T08:38:22.019Z,26.13
2022-11-14T08:41:25.184Z,26.73
2022-11-14T08:44:29.678Z,25.20
2022-11-14T08:47:32.971Z,25.27
2022-11-14T08:50:36.128Z,26.50
2022-11-14T08:53:39.236Z,23.80
2022-11-14T08:56:42.306Z,28.43
2022-11-14T08:59:46.847Z,27.40
2022-11-14T09:02:50.054Z,28.73
2022-11-14T09:05:53.596Z,30.60
2022-11-14T09:08:57.080Z,26.13
2022-11-14T09:12:00.197Z,29.83
2022-11-14T09:15:05.038Z,24.20
2022-11-14T09:18:08.493Z,28.30
2022-11-14T09:21:12.482Z,28.83
2022-11-14T09:24:15.648Z,23.83
2022-11-14T09:27:18.854Z,25.50
2022-11-14T09:30:23.799Z,24.73
2022-11-14T09:33:27.192Z,25.60
2022-11-14T09:36:30.535Z,27.90
2022-11-14T09:39:37.994Z,25.83
2022-11-14T09:43:00.855Z,24.70
2022-11-14T09:46:05.782Z,25.77
2022-11-14T09:49:17.065Z,27.60
2022-11-14T09:52:29.428Z,26.40
2022-11-14T09:55:37.161Z,25.73
2022-11-14T09:58:42.478Z,25.53
2022-11-14T10:01:56.614Z,27.00
2022-11-14T10:05:16.432Z,26.40
2022-11-14T10:08:36.387Z,25.40
2022-11-14T10:11:43.433Z,28.30
2022-11-14T10:15:02.453Z,26.15
2022-11-14T10:18:27.754Z,29.30
2022-11-14T10:21:42.448Z,29.80
2022-11-14T10:25:00.968Z,29.10
2022-11-14T10:28:22.052Z,30.08
2022-11-14T10:31:36.882Z,32.30
2022-11-14T10:34:49.060Z,31.87
2022-11-14T10:38:02.318Z,31.30
2022-11-14T10:41:07.645Z,31.43
2022-11-14T10:44:16.109Z,30.33
2022-11-14T10:47:24.260Z,29.83
2022-11-14T10:50:36.742Z,28.07
2022-11-14T10:53:49.698Z,32.60
2022-11-14T10:56:54.881Z,29.00
2022-11-14T10:59:57.980Z,27.17
2022-11-14T11:03:01.134Z,29.33
2022-11-14T11:06:05.793Z,27.33
2022-11-14T11:09:27.466Z,27.60
2022-11-14T11:12:46.033Z,29.20
2022-11-14T11:15:58.510Z,27.33
2022-11-14T11:19:16.965Z,26.80
2022-11-14T11:22:37.001Z,24.77
2022-11-14T11:25:41.325Z,27.15
2022-11-14T11:28:44.501Z,25.60
2022-11-14T11:31:52.662Z,24.85
2022-11-14T11:34:58.160Z,23.95
2022-11-14T11:38:05.368Z,23.42
2022-11-14T11:41:33.186Z,26.13
2022-11-14T11:44:48.009Z,25.60
2022-11-14T11:47:56.542Z,25.23
2022-11-14T11:51:01.891Z,24.60
2022-11-14T11:54:14.921Z,24.00
2022-11-14T11:57:22.150Z,26.00
2022-11-14T12:00:25.735Z,22.67
2022-11-14T12:03:29.305Z,23.05
2022-11-14T12:06:40.476Z,24.10
2022-11-14T12:13:42.494Z,24.10
2022-11-14T12:17:26.121Z,22.98
2022-11-14T12:20:47.154Z,21.80
2022-11-14T12:24:26.397Z,21.27
2022-11-14T12:27:59.257Z,23.23
2022-11-14T12:31:07.091Z,23.17
2022-11-14T12:34:22.672Z,22.05
2022-11-14T12:37:32.713Z,21.50
2022-11-14T12:40:39.603Z,22.67
2022-11-14T12:43:44.447Z,21.73
2022-11-14T12:47:19.897Z,20.88
2022-11-14T12:50:41.251Z,22.13
2022-11-14T12:53:45.349Z,23.73
2022-11-14T12:57:05.255Z,22.83
2022-11-14T13:00:11.634Z,20.00
2022-11-14T13:03:26.859Z,20.15
2022-11-14T13:06:40.404Z,20.55
2022-11-14T13:10:01.084Z,20.60
2022-11-14T13:13:25.701Z,19.67
2022-11-14T13:16:50.079Z,18.77
2022-11-14T13:20:10.535Z,20.88
2022-11-14T13:23:47.337Z,19.33
2022-11-14T13:26:55.117Z,22.60
2022-11-14T13:29:59.982Z,22.10
2022-11-14T13:33:07.931Z,20.03
2022-11-14T13:36:12.748Z,20.47
2022-11-14T13:39:24.883Z,21.30
2022-11-14T13:42:42.056Z,22.50
2022-11-14T13:45:59.129Z,22.20
2022-11-14T13:49:30.102Z,23.17
2022-11-14T13:52:35.142Z,23.43
2022-11-14T13:55:50.775Z,21.17
2022-11-14T13:59:47.581Z,20.73
2022-11-14T14:03:01.407Z,21.90
2022-11-14T14:06:20.531Z,23.77
2022-11-14T14:09:29.751Z,22.53
2022-11-14T14:12:46.317Z,24.67
2022-11-14T14:16:03.193Z,22.90
2022-11-14T14:19:19.560Z,24.33
2022-11-14T14:22:33.516Z,22.70
2022-11-14T14:25:45.783Z,21.73
2022-11-14T14:28:57.202Z,24.23
2022-11-14T14:32:08.309Z,24.27
2022-11-14T14:35:25.484Z,25.70
2022-11-14T14:38:31.088Z,23.77
2022-11-14T14:41:35.832Z,24.93
2022-11-14T14:44:39.898Z,38.17
2022-11-14T14:47:44.436Z,48.70
2022-11-14T14:50:51.106Z,43.77
2022-11-14T14:53:55.784Z,36.07
2022-11-14T14:57:01.226Z,50.67
2022-11-14T15:00:07.629Z,45.30
2022-11-14T15:03:11.711Z,52.47
2022-11-14T15:06:29.780Z,45.93
2022-11-14T15:09:34.394Z,52.90
2022-11-14T15:12:37.862Z,47.27
2022-11-14T15:15:41.190Z,45.30
2022-11-14T15:18:46.092Z,38.73
2022-11-14T15:22:04.099Z,41.30
2022-11-14T15:25:20.602Z,41.13
2022-11-14T15:28:23.886Z,38.23
2022-11-14T15:31:27.107Z,51.23
2022-11-14T15:34:31.969Z,43.97
2022-11-14T15:37:35.114Z,49.30
2022-11-14T15:40:41.165Z,44.07
2022-11-14T15:43:50.573Z,57.13
2022-11-14T15:46:53.764Z,73.27
2022-11-14T15:50:02.598Z,60.40
2022-11-14T15:53:08.457Z,50.57
2022-11-14T15:56:14.635Z,50.53
2022-11-14T15:59:18.899Z,57.97
2022-11-14T16:02:24.252Z,55.70
2022-11-14T16:05:30.472Z,54.70
2022-11-14T16:08:33.652Z,81.17
2022-11-14T16:11:38.146Z,64.60
2022-11-14T16:14:42.477Z,58.60
2022-11-14T16:17:48.000Z,52.80
2022-11-14T16:20:51.908Z,54.57
2022-11-14T16:23:55.058Z,66.93
2022-11-14T16:26:59.854Z,45.37
2022-11-14T16:30:03.160Z,49.73
2022-11-14T16:33:06.350Z,48.10
2022-11-14T16:36:12.300Z,47.70
2022-11-14T16:39:15.547Z,48.50
2022-11-14T16:42:20.100Z,51.43
2022-11-14T16:45:23.844Z,63.00
2022-11-14T16:48:27.317Z,54.50
2022-11-14T16:51:47.152Z,59.17
2022-11-14T16:54:51.863Z,52.77
2022-11-14T16:57:56.513Z,54.40
2022-11-14T17:00:59.727Z,54.00
2022-11-14T17:04:02.857Z,49.97
2022-11-14T17:07:06.434Z,55.97
2022-11-14T17:10:10.374Z,105.30
2022-11-14T17:13:21.655Z,63.87
2022-11-14T17:16:28.419Z,63.77
2022-11-14T17:19:31.596Z,112.47
2022-11-14T17:22:34.767Z,74.97
2022-11-14T17:25:38.272Z,67.77
2022-11-14T17:28:43.604Z,54.73
2022-11-14T17:31:47.426Z,57.63
2022-11-14T17:34:50.945Z,57.53
2022-11-14T17:37:59.955Z,50.00
2022-11-14T17:41:06.154Z,48.40
2022-11-14T17:44:14.784Z,49.53
2022-11-14T17:47:18.172Z,46.50
2022-11-14T17:50:22.455Z,51.67
2022-11-14T17:53:26.123Z,49.30
2022-11-14T17:56:30.028Z,49.47
2022-11-14T17:59:36.988Z,54.27
2022-11-14T18:02:41.942Z,51.50
2022-11-14T18:05:46.197Z,47.40
2022-11-14T18:08:50.078Z,48.40
2022-11-14T18:11:54.178Z,53.03
2022-11-14T18:14:59.697Z,48.00
2022-11-14T18:18:05.441Z,55.20
2022-11-14T18:21:10.630Z,53.90
2022-11-14T18:24:16.843Z,52.93
2022-11-14T18:27:20.918Z,46.37
2022-11-14T18:30:40.897Z,54.20
2022-11-14T18:33:47.345Z,52.73
2022-11-14T18:36:51.793Z,53.30
2022-11-14T18:39:59.148Z,55.07
2022-11-14T18:43:03.732Z,54.93
2022-11-14T18:46:11.369Z,57.80
2022-11-14T18:49:18.856Z,55.43
2022-11-14T18:52:22.937Z,57.40
2022-11-14T18:55:27.418Z,59.80
2022-11-14T18:58:32.540Z,54.80
2022-11-14T19:01:38.293Z,53.50
2022-11-14T19:04:43.846Z,64.03
2022-11-14T19:07:49.101Z,52.53
2022-11-14T19:10:56.426Z,51.37
2022-11-14T19:14:08.870Z,53.70
2022-11-14T19:17:15.407Z,54.10
2022-11-14T19:20:21.221Z,67.77
2022-11-14T19:23:27.156Z,58.53
2022-11-14T19:26:31.774Z,62.70
2022-11-14T19:29:36.353Z,63.17
2022-11-14T19:32:42.090Z,58.37
2022-11-14T19:35:46.526Z,59.10
2022-11-14T19:38:56.317Z,60.73
2022-11-14T19:42:01.022Z,68.20
2022-11-14T19:45:07.177Z,55.60
2022-11-14T19:48:13.637Z,67.63
2022-11-14T19:51:19.712Z,69.80
2022-11-14T19:54:25.419Z,68.27
2022-11-14T19:57:34.183Z,58.43
2022-11-14T20:00:39.056Z,63.60
2022-11-14T20:03:46.106Z,61.93
2022-11-14T20:06:50.311Z,64.63
2022-11-14T20:09:54.451Z,64.37
2022-11-14T20:12:59.565Z,57.00
2022-11-14T20:16:11.060Z,63.10
2022-11-14T20:19:18.613Z,61.57
2022-11-14T20:22:24.071Z,56.27
2022-11-14T20:25:28.392Z,61.40
2022-11-14T20:28:32.811Z,60.60
2022-11-14T20:31:36.475Z,66.60
2022-11-14T20:34:45.688Z,65.20
2022-11-14T20:37:50.591Z,67.57
2022-11-14T20:40:59.200Z,60.83
2022-11-14T20:44:04.618Z,59.47
2022-11-14T20:47:11.143Z,63.03
2022-11-14T20:50:19.554Z,59.93
2022-11-14T20:53:23.167Z,63.07
2022-11-14T20:56:27.816Z,65.90
2022-11-14T20:59:31.617Z,70.17
2022-11-14T21:02:35.843Z,61.93
2022-11-14T21:05:41.731Z,67.97
2022-11-14T21:08:45.184Z,64.43
2022-11-14T21:11:48.678Z,72.20
2022-11-14T21:14:51.794Z,70.90
2022-11-14T21:17:55.458Z,67.40
2022-11-14T21:21:05.180Z,65.70
2022-11-14T21:24:09.210Z,68.83
2022-11-14T21:27:13.532Z,68.53
2022-11-14T21:30:16.824Z,74.70
2022-11-14T21:33:20.060Z,67.20
2022-11-14T21:39:49.185Z,66.43
2022-11-14T21:42:52.322Z,69.33
2022-11-14T21:45:57.138Z,68.27
2022-11-14T21:49:00.233Z,70.70
2022-11-14T21:52:04.932Z,70.23
2022-11-14T21:55:08.856Z,68.13
2022-11-14T21:58:12.856Z,71.87
2022-11-14T22:01:37.731Z,65.70
2022-11-14T22:04:40.886Z,78.77
2022-11-14T22:07:45.656Z,77.83
2022-11-14T22:10:48.791Z,68.03
2022-11-14T22:13:52.118Z,72.73
2022-11-14T22:16:55.337Z,69.47
2022-11-14T22:19:58.431Z,70.17
2022-11-14T22:23:02.884Z,67.27
2022-11-14T22:26:06.362Z,67.37
2022-11-14T22:29:10.108Z,78.57
2022-11-14T22:32:13.212Z,75.63
2022-11-14T22:35:16.723Z,73.67
2022-11-14T22:38:21.221Z,81.80
2022-11-14T22:41:30.737Z,76.20
2022-11-14T22:44:35.217Z,69.20
2022-11-14T22:47:38.313Z,76.43
2022-11-14T22:50:41.411Z,71.27
2022-11-14T22:53:48.240Z,76.70
2022-11-14T22:56:51.345Z,75.87
2022-11-14T22:59:54.456Z,61.73
2022-11-14T23:02:57.719Z,69.30
2022-11-14T23:06:00.900Z,72.27
2022-11-14T23:09:05.728Z,69.37
2022-11-14T23:12:09.059Z,74.00
2022-11-14T23:15:12.310Z,70.97
2022-11-14T23:18:15.739Z,76.27
2022-11-14T23:21:20.835Z,74.77
2022-11-14T23:24:25.378Z,74.50
2022-11-14T23:27:28.597Z,75.90
2022-11-14T23:30:31.790Z,77.03
2022-11-14T23:33:35.196Z,73.73
2022-11-14T23:36:38.479Z,80.27
2022-11-14T23:39:43.006Z,78.13
2022-11-14T23:42:46.231Z,69.47
2022-11-14T23:45:49.606Z,68.03
2022-11-14T23:48:53.494Z,68.93
2022-11-14T23:51:56.735Z,72.67
2022-11-14T23:55:02.701Z,82.80
2022-11-14T23:58:05.884Z,77.37
